Boulder, Montana
Current Conditions -  °F | °C
As of 4:53 AM on Friday 19 Dec 2014 (Local Time) from KHLN Reporting Station
Overcast Overcast  
Wind Chill: -4°   Ceiling: 10000
Heat Index: -4°   Visibility: 10mi
Dew Point: -6°   Wind: 0mph
Humidity: 91%   Direction: NA
Pressure: 29.96"   Gusts: NA
Location:  46.24°N, 112.12°W
Report Text: KHLN 191153Z AUTO 00000KT 10SM OVC100 M04/M06 A2996 RMK AO2 SLP200 T10441056 11033 21056 58003
Loading
Personal Weather Stations






























Interactive Weather Map New forecast layout! Learn more

10-Day Weather Forecast

Advertisements
Track Severe Weather on mobile